createdAt,value
2024-05-09T00:00:35.518Z,101070.64
2024-05-09T00:03:10.054Z,101070.79
2024-05-09T00:05:39.993Z,101071.67
2024-05-09T00:08:07.073Z,101070.63
2024-05-09T00:10:37.388Z,101069.58
2024-05-09T00:13:07.173Z,101067.85
2024-05-09T00:15:35.218Z,101067.19
2024-05-09T00:18:03.178Z,101063.20
2024-05-09T00:20:37.523Z,101061.11
2024-05-09T00:23:08.431Z,101061.66
2024-05-09T00:25:35.706Z,101062.23
2024-05-09T00:28:02.914Z,101060.23
2024-05-09T00:30:34.600Z,101062.27
2024-05-09T00:33:05.907Z,101066.48
2024-05-09T00:35:33.685Z,101065.27
2024-05-09T00:38:00.560Z,101068.30
2024-05-09T00:40:37.274Z,101065.24
2024-05-09T00:43:06.576Z,101064.38
2024-05-09T00:45:34.596Z,101065.34
2024-05-09T00:48:04.831Z,101063.06
2024-05-09T00:50:36.771Z,101064.68
2024-05-09T00:53:06.414Z,101063.48
2024-05-09T00:55:35.018Z,101064.30
2024-05-09T00:58:02.727Z,101064.80
2024-05-09T01:00:37.826Z,101065.84
2024-05-09T01:03:07.780Z,101065.91
2024-05-09T01:05:35.653Z,101064.46
2024-05-09T01:08:03.284Z,101067.33
2024-05-09T01:10:34.633Z,101068.61
2024-05-09T01:13:07.056Z,101067.13
2024-05-09T01:15:35.511Z,101068.02
2024-05-09T01:18:09.090Z,101066.86
2024-05-09T01:20:41.542Z,101066.02
2024-05-09T01:23:11.850Z,101069.23
2024-05-09T01:25:38.926Z,101070.56
2024-05-09T01:28:06.063Z,101071.73
2024-05-09T01:30:36.338Z,101071.63
2024-05-09T01:33:06.797Z,101072.17
2024-05-09T01:35:35.401Z,101073.63
2024-05-09T01:38:02.344Z,101071.10
2024-05-09T01:40:36.795Z,101077.34
2024-05-09T01:43:06.441Z,101075.30
2024-05-09T01:45:33.240Z,101074.98
2024-05-09T01:48:00.650Z,101076.05
2024-05-09T01:52:57.116Z,101073.70
2024-05-09T01:55:23.793Z,101076.41
2024-05-09T01:57:51.355Z,101080.02
2024-05-09T02:00:26.283Z,101076.02
2024-05-09T02:03:01.613Z,101077.02
2024-05-09T02:05:28.595Z,101078.13
2024-05-09T02:07:55.362Z,101079.48
2024-05-09T02:10:26.525Z,101077.96
2024-05-09T02:12:58.948Z,101071.05
2024-05-09T02:15:25.545Z,101075.86
2024-05-09T02:17:52.223Z,101078.17
2024-05-09T02:20:29.620Z,101078.84
2024-05-09T02:23:03.389Z,101083.55
2024-05-09T02:25:29.986Z,101081.41
2024-05-09T02:27:56.573Z,101080.31
2024-05-09T02:30:30.699Z,101076.31
2024-05-09T02:33:05.686Z,101072.64
2024-05-09T02:35:32.621Z,101070.42
2024-05-09T02:37:59.416Z,101070.03
2024-05-09T02:40:35.052Z,101067.59
2024-05-09T02:43:04.412Z,101071.68
2024-05-09T02:45:31.026Z,101072.79
2024-05-09T02:47:58.033Z,101072.17
2024-05-09T02:50:33.161Z,101074.30
2024-05-09T02:53:04.451Z,101073.04
2024-05-09T02:55:31.330Z,101077.81
2024-05-09T02:57:57.888Z,101078.71
2024-05-09T03:00:33.686Z,101078.21
2024-05-09T03:03:05.823Z,101077.38
2024-05-09T03:05:32.641Z,101074.27
2024-05-09T03:07:59.493Z,101076.76
2024-05-09T03:10:28.964Z,101072.30
2024-05-09T03:13:06.087Z,101072.27
2024-05-09T03:15:32.710Z,101075.69
2024-05-09T03:18:00.036Z,101071.59
2024-05-09T03:20:32.993Z,101071.48
2024-05-09T03:23:01.976Z,101072.41
2024-05-09T03:25:28.627Z,101071.30
2024-05-09T03:27:55.182Z,101071.59
2024-05-09T03:30:30.976Z,101071.63
2024-05-09T03:33:19.645Z,101073.95
2024-05-09T03:35:48.017Z,101074.40
2024-05-09T03:38:15.067Z,101070.43
2024-05-09T03:40:45.818Z,101073.46
2024-05-09T03:43:13.396Z,101071.76
2024-05-09T03:45:39.967Z,101073.67
2024-05-09T03:48:07.253Z,101074.91
2024-05-09T03:50:35.976Z,101070.52
2024-05-09T03:53:03.828Z,101074.29
2024-05-09T03:55:30.871Z,101074.62
2024-05-09T03:57:57.388Z,101076.40
2024-05-09T04:00:31.302Z,101075.65
2024-05-09T04:03:06.269Z,101073.84
2024-05-09T04:05:35.114Z,101076.86
2024-05-09T04:08:02.147Z,101079.11
2024-05-09T04:10:33.419Z,101083.46
2024-05-09T04:13:02.031Z,101082.19
2024-05-09T04:15:28.856Z,101083.17
2024-05-09T04:17:55.842Z,101084.66
2024-05-09T04:20:33.102Z,101090.62
2024-05-09T04:23:11.164Z,101091.07
2024-05-09T04:25:38.166Z,101094.33
2024-05-09T04:28:05.380Z,101097.42
2024-05-09T04:30:38.076Z,101099.68
2024-05-09T04:33:10.130Z,101098.65
2024-05-09T04:35:39.045Z,101097.94
2024-05-09T04:38:06.289Z,101098.02
2024-05-09T04:40:36.005Z,101102.64
2024-05-09T04:43:05.465Z,101103.41
2024-05-09T04:45:32.488Z,101105.42
2024-05-09T04:47:59.319Z,101109.05
2024-05-09T04:50:35.355Z,101111.24
2024-05-09T04:53:06.357Z,101111.86
2024-05-09T04:55:36.111Z,101116.33
2024-05-09T04:58:02.753Z,101115.05
2024-05-09T05:00:35.861Z,101115.55
2024-05-09T05:03:08.134Z,101115.91
2024-05-09T05:05:37.826Z,101117.07
2024-05-09T05:08:05.419Z,101116.11
2024-05-09T05:10:36.150Z,101114.01
2024-05-09T05:13:18.028Z,101114.45
2024-05-09T05:15:58.326Z,101113.95
2024-05-09T05:18:27.717Z,101119.80
2024-05-09T05:20:55.984Z,101119.38
2024-05-09T05:23:23.357Z,101117.98
2024-05-09T05:25:54.828Z,101117.95
2024-05-09T05:28:22.406Z,101119.59
2024-05-09T05:30:49.289Z,101122.23
2024-05-09T05:33:18.794Z,101126.47
2024-05-09T05:35:46.139Z,101123.98
2024-05-09T05:38:13.161Z,101129.67
2024-05-09T05:40:40.843Z,101130.45
2024-05-09T05:43:10.038Z,101134.23
2024-05-09T05:45:37.528Z,101137.18
2024-05-09T05:48:06.098Z,101132.89
2024-05-09T05:50:36.652Z,101133.38
2024-05-09T05:53:09.327Z,101131.73
2024-05-09T05:55:36.789Z,101129.83
2024-05-09T05:58:03.474Z,101134.11
2024-05-09T06:00:37.830Z,101134.68
2024-05-09T06:03:12.127Z,101134.27
2024-05-09T06:05:46.623Z,101132.20
2024-05-09T06:08:13.599Z,101137.86
2024-05-09T06:10:41.555Z,101136.83
2024-05-09T06:13:12.573Z,101138.66
2024-05-09T06:15:40.547Z,101141.69
2024-05-09T06:18:09.729Z,101144.91
2024-05-09T06:20:39.242Z,101143.55
2024-05-09T06:23:06.782Z,101140.60
2024-05-09T06:25:35.184Z,101142.90
2024-05-09T06:28:02.077Z,101139.88
2024-05-09T06:30:37.071Z,101139.84
2024-05-09T06:33:08.989Z,101143.40
2024-05-09T06:35:36.511Z,101142.12
2024-05-09T06:38:03.653Z,101140.80
2024-05-09T06:40:37.191Z,101143.91
2024-05-09T06:43:13.464Z,101143.11
2024-05-09T06:45:40.389Z,101141.25
2024-05-09T06:48:09.421Z,101142.80
2024-05-09T06:50:38.477Z,101146.61
2024-05-09T06:53:07.794Z,101149.11
2024-05-09T06:55:34.668Z,101151.54
2024-05-09T06:58:01.356Z,101154.77
2024-05-09T07:00:35.634Z,101152.65
2024-05-09T07:03:11.866Z,101152.73
2024-05-09T07:05:39.844Z,101151.02
2024-05-09T07:08:07.903Z,101154.02
2024-05-09T07:10:36.203Z,101154.73
2024-05-09T07:13:11.546Z,101156.46
2024-05-09T07:15:39.186Z,101158.78
2024-05-09T07:18:24.198Z,101157.70
2024-05-09T07:20:51.231Z,101160.22
2024-05-09T07:23:18.423Z,101161.72
2024-05-09T07:25:45.645Z,101160.77
2024-05-09T07:28:16.942Z,101162.44
2024-05-09T07:30:44.298Z,101157.91
2024-05-09T07:33:19.888Z,101157.77
2024-05-09T07:35:48.291Z,101162.30
2024-05-09T07:38:15.101Z,101162.47
2024-05-09T07:40:42.071Z,101158.61
2024-05-09T07:43:12.760Z,101162.42
2024-05-09T07:45:49.341Z,101159.38
2024-05-09T07:53:39.226Z,101159.65
2024-05-09T07:56:09.988Z,101162.08
2024-05-09T07:58:37.458Z,101162.23
2024-05-09T08:01:04.940Z,101158.33
2024-05-09T08:03:33.976Z,101159.73
2024-05-09T08:06:00.980Z,101159.77
2024-05-09T08:08:27.519Z,101163.41
2024-05-09T08:10:54.214Z,101165.64
2024-05-09T08:13:21.007Z,101164.05
2024-05-09T08:15:48.643Z,101163.91
2024-05-09T08:18:15.644Z,101164.15
2024-05-09T08:20:42.773Z,101163.60
2024-05-09T08:23:10.843Z,101162.09
2024-05-09T08:25:38.493Z,101161.66
2024-05-09T08:28:05.410Z,101164.45
2024-05-09T08:30:36.889Z,101164.20
2024-05-09T08:33:06.376Z,101163.64
2024-05-09T08:35:33.938Z,101166.10
2024-05-09T08:38:03.231Z,101163.34
2024-05-09T08:40:35.397Z,101160.38
2024-05-09T08:43:07.959Z,101160.57
2024-05-09T08:45:36.726Z,101163.32
2024-05-09T08:48:07.793Z,101158.02
2024-05-09T08:50:38.996Z,101157.77
2024-05-09T08:53:08.372Z,101156.45
2024-05-09T08:55:39.441Z,101155.85
2024-05-09T08:58:12.396Z,101155.15
2024-05-09T09:00:41.815Z,101155.35
2024-05-09T09:03:11.118Z,101153.03
2024-05-09T09:05:40.425Z,101155.08
2024-05-09T09:08:08.527Z,101152.81
2024-05-09T09:10:39.577Z,101150.65
2024-05-09T09:13:09.415Z,101148.70
2024-05-09T09:15:47.103Z,101149.97
2024-05-09T09:18:16.071Z,101150.73
2024-05-09T09:20:43.937Z,101152.05
2024-05-09T09:23:10.670Z,101150.67
2024-05-09T09:25:41.550Z,101154.09
2024-05-09T09:28:09.331Z,101148.73
2024-05-09T09:30:39.946Z,101150.84
2024-05-09T09:33:09.536Z,101150.73
2024-05-09T09:35:36.572Z,101152.35
2024-05-09T09:38:05.574Z,101154.40
2024-05-09T09:40:41.119Z,101153.06
2024-05-09T09:43:21.675Z,101156.07
2024-05-09T09:45:52.432Z,101155.02
2024-05-09T09:48:21.466Z,101155.69
2024-05-09T09:50:48.563Z,101151.71
2024-05-09T09:53:16.527Z,101152.29
2024-05-09T09:55:43.659Z,101150.89
2024-05-09T09:58:13.448Z,101146.77
2024-05-09T10:00:41.282Z,101140.92
2024-05-09T10:03:08.163Z,101142.73
2024-05-09T10:05:35.600Z,101141.28
2024-05-09T10:08:07.378Z,101142.95
2024-05-09T10:10:35.818Z,101139.45
2024-05-09T10:13:07.290Z,101144.08
2024-05-09T10:15:53.861Z,101141.67
2024-05-09T10:18:26.089Z,101140.71
2024-05-09T10:20:55.801Z,101136.77
2024-05-09T10:23:26.721Z,101139.39
2024-05-09T10:26:03.481Z,101139.01
2024-05-09T10:28:32.162Z,101138.91
2024-05-09T10:31:12.683Z,101134.25
2024-05-09T10:33:51.016Z,101128.95
2024-05-09T10:36:23.398Z,101124.73
2024-05-09T10:38:50.802Z,101121.08
2024-05-09T10:41:18.746Z,101128.13
2024-05-09T10:43:47.123Z,101124.42
2024-05-09T10:46:18.779Z,101121.92
2024-05-09T10:48:46.748Z,101123.19
2024-05-09T10:51:13.679Z,101122.77
2024-05-09T10:53:44.762Z,101116.36
2024-05-09T10:56:13.552Z,101120.27
2024-05-09T10:58:40.428Z,101118.39
2024-05-09T11:01:08.849Z,101117.20
2024-05-09T11:03:36.558Z,101116.12
2024-05-09T11:06:04.126Z,101113.56
2024-05-09T11:08:32.419Z,101115.03
2024-05-09T11:10:59.993Z,101109.14
2024-05-09T11:13:28.249Z,101107.60
2024-05-09T11:15:55.593Z,101107.08
2024-05-09T11:18:25.445Z,101104.30
2024-05-09T11:20:54.238Z,101101.75
2024-05-09T11:23:22.242Z,101100.02
2024-05-09T11:25:53.943Z,101101.22
2024-05-09T11:28:21.949Z,101103.42
2024-05-09T11:30:49.792Z,101101.09
2024-05-09T11:33:19.169Z,101097.19
2024-05-09T11:35:46.885Z,101096.41
2024-05-09T11:38:13.883Z,101099.10
2024-05-09T11:40:41.666Z,101090.72
2024-05-09T11:43:08.652Z,101092.35
2024-05-09T11:45:35.370Z,101091.70
2024-05-09T11:48:03.884Z,101090.46
2024-05-09T11:50:35.264Z,101092.83
2024-05-09T11:53:03.132Z,101088.16
2024-05-09T11:55:30.429Z,101088.16
2024-05-09T11:57:57.379Z,101090.48
2024-05-09T12:00:33.267Z,101087.45
2024-05-09T12:03:04.479Z,101087.96
2024-05-09T12:05:31.432Z,101080.86
2024-05-09T12:07:58.247Z,101082.48
2024-05-09T12:10:32.575Z,101081.02
2024-05-09T12:13:02.216Z,101082.77
2024-05-09T12:15:29.082Z,101077.59
2024-05-09T12:17:58.361Z,101081.38
2024-05-09T12:20:35.160Z,101076.12
2024-05-09T12:23:05.559Z,101073.45
2024-05-09T12:25:32.260Z,101075.05
2024-05-09T12:27:59.355Z,101073.71
2024-05-09T12:30:35.291Z,101071.20
2024-05-09T12:33:07.403Z,101071.39
2024-05-09T12:35:34.168Z,101070.29
2024-05-09T12:38:00.774Z,101069.84
2024-05-09T12:40:35.468Z,101066.95
2024-05-09T12:43:06.744Z,101062.84
2024-05-09T12:45:33.836Z,101062.91
2024-05-09T12:48:00.828Z,101061.03
2024-05-09T12:50:32.244Z,101057.25
2024-05-09T12:53:01.574Z,101057.73
2024-05-09T12:55:33.465Z,101054.65
2024-05-09T12:58:06.861Z,101056.60
2024-05-09T13:00:34.507Z,101057.82
2024-05-09T13:03:01.677Z,101057.00
2024-05-09T13:05:29.220Z,101055.77
2024-05-09T13:07:56.456Z,101052.86
2024-05-09T13:10:30.696Z,101045.75
2024-05-09T13:12:59.995Z,101046.13
2024-05-09T13:15:27.052Z,101047.18
2024-05-09T13:17:55.811Z,101046.35
2024-05-09T13:20:31.251Z,101045.55
2024-05-09T13:23:01.554Z,101041.42
2024-05-09T13:25:28.305Z,101039.98
2024-05-09T13:28:14.602Z,101034.53
2024-05-09T13:30:42.290Z,101030.55
2024-05-09T13:33:11.934Z,101028.34
2024-05-09T13:35:42.773Z,101029.21
2024-05-09T13:38:13.743Z,101029.10
2024-05-09T13:40:41.492Z,101023.97
2024-05-09T13:43:08.382Z,101018.83
2024-05-09T13:45:35.023Z,101014.23
2024-05-09T13:48:03.447Z,101015.43
2024-05-09T13:50:34.602Z,101012.36
2024-05-09T13:53:04.841Z,101008.04
2024-05-09T13:55:32.279Z,101004.05
2024-05-09T13:57:59.090Z,101002.06
2024-05-09T14:00:38.005Z,100996.24
2024-05-09T14:03:11.536Z,100993.21
2024-05-09T14:05:38.581Z,100987.19
2024-05-09T14:08:05.829Z,100983.93
2024-05-09T14:10:32.809Z,100983.33
2024-05-09T14:13:00.761Z,100977.74
2024-05-09T14:15:27.625Z,100976.33
2024-05-09T14:17:55.340Z,100974.98
2024-05-09T14:20:30.353Z,100977.78
2024-05-09T14:22:59.797Z,100970.02
2024-05-09T14:25:35.205Z,100971.20
2024-05-09T14:28:03.839Z,100966.55
2024-05-09T14:30:36.487Z,100963.82
2024-05-09T14:33:06.758Z,100970.64
2024-05-09T14:35:34.335Z,100964.33
2024-05-09T14:38:01.170Z,100963.28
2024-05-09T14:40:38.189Z,100961.15
2024-05-09T14:43:10.309Z,100958.25
2024-05-09T14:45:37.179Z,100955.74
2024-05-09T14:48:04.686Z,100951.92
2024-05-09T14:50:36.813Z,100952.55
2024-05-09T14:53:07.433Z,100950.52
2024-05-09T14:55:38.118Z,100947.14
2024-05-09T14:58:06.738Z,100944.02
2024-05-09T15:00:36.681Z,100944.64
2024-05-09T15:03:05.225Z,100938.95
2024-05-09T15:05:32.051Z,100941.20
2024-05-09T15:07:59.178Z,100943.76
2024-05-09T15:10:33.610Z,100942.27
2024-05-09T15:13:03.925Z,100941.08
2024-05-09T15:15:30.922Z,100943.30
2024-05-09T15:17:57.945Z,100942.11
2024-05-09T15:20:32.967Z,100936.93
2024-05-09T15:23:02.746Z,100938.45
2024-05-09T15:25:29.804Z,100935.17
2024-05-09T15:27:56.835Z,100936.66
2024-05-09T15:30:30.756Z,100934.41
2024-05-09T15:33:00.095Z,100935.67
2024-05-09T15:35:26.937Z,100934.64
2024-05-09T15:37:53.845Z,100932.86
2024-05-09T15:40:30.534Z,100933.79
2024-05-09T15:43:05.006Z,100928.64
2024-05-09T15:45:32.044Z,100927.67
2024-05-09T15:47:59.109Z,100927.40
2024-05-09T15:50:35.563Z,100927.48
2024-05-09T15:53:06.846Z,100925.32
2024-05-09T15:55:34.804Z,100926.77
2024-05-09T15:58:03.142Z,100928.04
2024-05-09T16:00:37.553Z,100929.90
2024-05-09T16:03:08.810Z,100928.82
2024-05-09T16:05:36.254Z,100927.26
2024-05-09T16:08:03.165Z,100921.50
2024-05-09T16:10:33.064Z,100921.26
2024-05-09T16:13:02.076Z,100918.03
2024-05-09T16:15:29.171Z,100919.39
2024-05-09T16:17:58.803Z,100922.17
2024-05-09T16:20:34.654Z,100920.91
2024-05-09T16:23:08.059Z,100920.74
2024-05-09T16:25:34.944Z,100920.11
2024-05-09T16:28:03.797Z,100922.85
2024-05-09T16:30:35.388Z,100923.92
2024-05-09T16:33:04.641Z,100920.98
2024-05-09T16:35:32.234Z,100922.17
2024-05-09T16:38:01.186Z,100926.39
2024-05-09T16:40:36.149Z,100922.30
2024-05-09T16:43:06.718Z,100926.45
2024-05-09T16:45:33.841Z,100925.14
2024-05-09T16:48:01.466Z,100927.41
2024-05-09T16:50:32.798Z,100923.44
2024-05-09T16:53:02.032Z,100927.80
2024-05-09T16:55:28.957Z,100928.18
2024-05-09T16:57:56.982Z,100924.93
2024-05-09T17:00:35.171Z,100924.02
2024-05-09T17:03:08.527Z,100918.60
2024-05-09T17:05:35.980Z,100921.89
2024-05-09T17:08:03.339Z,100923.80
2024-05-09T17:10:33.585Z,100921.88
2024-05-09T17:13:07.152Z,100922.83
2024-05-09T17:15:35.926Z,100924.46
2024-05-09T17:18:04.079Z,100925.42
2024-05-09T17:20:34.630Z,100925.58
2024-05-09T17:23:05.078Z,100926.10
2024-05-09T17:25:32.561Z,100929.08
2024-05-09T17:28:06.077Z,100929.23
2024-05-09T17:30:38.795Z,100928.72
2024-05-09T17:33:08.909Z,100929.55
2024-05-09T17:35:36.674Z,100936.20
2024-05-09T17:38:04.951Z,100933.35
2024-05-09T17:40:35.501Z,100937.17
2024-05-09T17:43:05.278Z,100941.05
2024-05-09T17:45:32.837Z,100945.02
2024-05-09T17:48:00.130Z,100947.14
2024-05-09T17:50:34.629Z,100948.12
2024-05-09T17:53:03.451Z,100947.78
2024-05-09T17:55:30.205Z,100950.48
2024-05-09T17:57:57.326Z,100949.19
2024-05-09T18:00:36.118Z,100950.77
2024-05-09T18:03:07.675Z,100948.73
2024-05-09T18:05:35.974Z,100952.17
2024-05-09T18:08:03.545Z,100954.83
2024-05-09T18:10:36.044Z,100952.63
2024-05-09T18:13:06.469Z,100956.71
2024-05-09T18:15:34.033Z,100958.80
2024-05-09T18:18:01.706Z,100961.27
2024-05-09T18:20:37.445Z,100960.95
2024-05-09T18:23:09.983Z,100960.58
2024-05-09T18:25:36.632Z,100961.87
2024-05-09T18:28:03.511Z,100968.08
2024-05-09T18:30:34.882Z,100971.54
2024-05-09T18:33:05.533Z,100977.27
2024-05-09T18:35:33.561Z,100981.79
2024-05-09T18:38:00.426Z,100983.33
2024-05-09T18:40:33.652Z,100981.89
2024-05-09T18:43:04.238Z,100984.72
2024-05-09T18:45:31.149Z,100988.94
2024-05-09T18:47:58.241Z,100991.91
2024-05-09T18:50:34.211Z,100991.95
2024-05-09T18:53:08.513Z,100995.81
2024-05-09T18:55:35.601Z,100999.42
2024-05-09T18:58:03.642Z,100998.42
2024-05-09T19:00:35.314Z,101001.58
2024-05-09T19:03:09.341Z,101002.31
2024-05-09T19:05:38.847Z,101004.65
2024-05-09T19:08:07.018Z,101010.27
2024-05-09T19:10:35.321Z,101017.90
2024-05-09T19:13:07.982Z,101023.23
2024-05-09T19:15:38.554Z,101026.21
2024-05-09T19:18:06.172Z,101031.29
2024-05-09T19:20:35.245Z,101038.89
2024-05-09T19:23:03.451Z,101044.17
2024-05-09T19:25:30.477Z,101054.27
2024-05-09T19:27:57.289Z,101057.49
2024-05-09T19:30:32.891Z,101062.33
2024-05-09T19:33:05.839Z,101065.11
2024-05-09T19:35:32.938Z,101071.00
2024-05-09T19:37:59.907Z,101073.95
2024-05-09T19:40:31.427Z,101080.60
2024-05-09T19:43:01.176Z,101082.83
2024-05-09T19:45:28.164Z,101082.86
2024-05-09T19:47:55.486Z,101087.01
2024-05-09T19:50:30.834Z,101093.11
2024-05-09T19:53:04.008Z,101097.17
2024-05-09T19:55:30.599Z,101102.28
2024-05-09T19:57:57.824Z,101105.76
2024-05-09T20:00:32.538Z,101105.69
2024-05-09T20:03:02.581Z,101110.92
2024-05-09T20:05:32.604Z,101116.86
2024-05-09T20:07:59.543Z,101120.38
2024-05-09T20:10:31.471Z,101123.61
2024-05-09T20:13:00.344Z,101132.90
2024-05-09T20:15:27.258Z,101137.90
2024-05-09T20:17:55.193Z,101141.30
2024-05-09T20:20:31.899Z,101141.63
2024-05-09T20:23:03.456Z,101144.40
2024-05-09T20:25:30.112Z,101147.52
2024-05-09T20:27:56.814Z,101147.45
2024-05-09T20:30:30.620Z,101148.77
2024-05-09T20:33:00.103Z,101150.63
2024-05-09T20:35:27.003Z,101154.52
2024-05-09T20:37:53.775Z,101158.64
2024-05-09T20:40:28.423Z,101158.19
2024-05-09T20:42:59.362Z,101162.39
2024-05-09T20:45:26.360Z,101162.06
2024-05-09T20:47:53.158Z,101161.80
2024-05-09T20:50:28.510Z,101161.25
2024-05-09T20:53:03.112Z,101163.11
2024-05-09T20:55:30.144Z,101163.20
2024-05-09T20:57:57.620Z,101163.02
2024-05-09T21:00:33.798Z,101167.85
2024-05-09T21:03:06.314Z,101170.17
2024-05-09T21:05:33.966Z,101170.22
2024-05-09T21:08:01.143Z,101171.09
2024-05-09T21:10:32.261Z,101169.92
2024-05-09T21:13:00.478Z,101166.02
2024-05-09T21:15:27.055Z,101163.48
2024-05-09T21:17:53.668Z,101164.41
2024-05-09T21:20:24.151Z,101164.73
2024-05-09T21:22:57.557Z,101165.35
2024-05-09T21:25:24.226Z,101164.86
2024-05-09T21:27:51.159Z,101161.13
2024-05-09T21:30:26.826Z,101162.08
2024-05-09T21:32:59.824Z,101165.36
2024-05-09T21:35:26.530Z,101161.91
2024-05-09T21:37:53.148Z,101163.69
2024-05-09T21:40:27.357Z,101163.91
2024-05-09T21:43:01.215Z,101163.86
2024-05-09T21:45:28.104Z,101168.12
2024-05-09T21:47:54.967Z,101166.36
2024-05-09T21:50:28.204Z,101166.25
2024-05-09T21:53:02.076Z,101166.83
2024-05-09T21:55:28.636Z,101165.64
2024-05-09T21:57:56.484Z,101168.33
2024-05-09T22:00:29.222Z,101168.23
2024-05-09T22:03:02.557Z,101167.18
2024-05-09T22:05:29.623Z,101170.17
2024-05-09T22:07:56.755Z,101171.60
2024-05-09T22:10:29.914Z,101174.89
2024-05-09T22:13:00.067Z,101178.22
2024-05-09T22:15:26.933Z,101181.71
2024-05-09T22:17:53.834Z,101184.33
2024-05-09T22:20:28.812Z,101182.31
2024-05-09T22:23:03.666Z,101183.35
2024-05-09T22:25:31.220Z,101189.84
2024-05-09T22:27:58.875Z,101186.50
2024-05-09T22:30:34.130Z,101189.92
2024-05-09T22:33:11.332Z,101191.89
2024-05-09T22:35:39.843Z,101189.55
2024-05-09T22:38:06.711Z,101194.18
2024-05-09T22:40:42.990Z,101189.44
2024-05-09T22:43:23.443Z,101191.90
2024-05-09T22:45:52.972Z,101194.85
2024-05-09T22:48:20.362Z,101195.69
2024-05-09T22:50:47.240Z,101196.99
2024-05-09T22:53:13.893Z,101195.99
2024-05-09T22:55:40.658Z,101193.95
2024-05-09T22:58:07.567Z,101195.20
2024-05-09T23:00:34.412Z,101197.27
2024-05-09T23:03:01.944Z,101197.26
2024-05-09T23:05:29.249Z,101199.02
2024-05-09T23:07:56.068Z,101199.91
2024-05-09T23:10:30.893Z,101198.02
2024-05-09T23:13:02.258Z,101199.81
2024-05-09T23:15:29.023Z,101200.13
2024-05-09T23:17:56.051Z,101200.80
2024-05-09T23:20:33.217Z,101201.09
2024-05-09T23:23:05.427Z,101200.98
2024-05-09T23:25:32.269Z,101201.05
2024-05-09T23:27:58.937Z,101199.57
2024-05-09T23:30:33.782Z,101198.33
2024-05-09T23:33:05.224Z,101197.77
2024-05-09T23:35:32.098Z,101195.05
2024-05-09T23:37:58.630Z,101194.88
2024-05-09T23:40:36.773Z,101197.11
2024-05-09T23:43:08.076Z,101195.81
2024-05-09T23:45:35.020Z,101194.50
2024-05-09T23:48:02.617Z,101190.51
2024-05-09T23:50:35.034Z,101191.21
2024-05-09T23:53:05.815Z,101192.34
2024-05-09T23:55:32.874Z,101190.44
2024-05-09T23:57:59.934Z,101192.98
